createdAt,value
2023-02-02T00:01:34.724Z,12.98
2023-02-02T00:04:02.672Z,13.93
2023-02-02T00:06:31.747Z,11.05
2023-02-02T00:09:01.616Z,9.50
2023-02-02T00:11:29.531Z,13.48
2023-02-02T00:13:57.050Z,9.30
2023-02-02T00:16:27.542Z,7.40
2023-02-02T00:19:00.048Z,11.13
2023-02-02T00:21:28.075Z,7.38
2023-02-02T00:23:55.743Z,11.18
2023-02-02T00:26:23.408Z,7.63
2023-02-02T00:28:50.931Z,7.88
2023-02-02T00:31:18.606Z,13.02
2023-02-02T00:33:47.613Z,28.90
2023-02-02T00:36:15.493Z,22.25
2023-02-02T00:38:43.396Z,9.80
2023-02-02T00:41:10.958Z,12.43
2023-02-02T00:43:38.471Z,20.30
2023-02-02T00:46:06.942Z,25.92
2023-02-02T00:48:34.488Z,26.40
2023-02-02T00:51:02.642Z,18.60
2023-02-02T00:53:30.118Z,23.67
2023-02-02T00:55:57.670Z,23.90
2023-02-02T00:58:25.203Z,27.42
2023-02-02T01:00:53.255Z,24.45
2023-02-02T01:03:20.881Z,18.23
2023-02-02T01:05:50.460Z,33.72
2023-02-02T01:08:18.109Z,29.95
2023-02-02T01:10:45.712Z,33.47
2023-02-02T01:13:13.191Z,30.98
2023-02-02T01:15:40.800Z,29.50
2023-02-02T01:18:08.274Z,32.33
2023-02-02T01:20:35.814Z,17.98
2023-02-02T01:23:03.252Z,22.63
2023-02-02T01:25:32.823Z,20.33
2023-02-02T01:28:00.299Z,17.00
2023-02-02T01:30:28.734Z,11.70
2023-02-02T01:32:56.355Z,12.68
2023-02-02T01:35:24.127Z,8.90
2023-02-02T01:37:51.945Z,16.00
2023-02-02T01:40:19.933Z,21.38
2023-02-02T01:42:47.496Z,16.38
2023-02-02T01:45:21.554Z,17.00
2023-02-02T01:47:56.940Z,21.45
2023-02-02T01:50:30.159Z,14.20
2023-02-02T01:53:00.137Z,17.33
2023-02-02T01:55:31.511Z,25.38
2023-02-02T01:58:10.763Z,13.45
2023-02-02T02:00:40.567Z,22.77
2023-02-02T02:03:19.329Z,20.02
2023-02-02T02:05:56.137Z,12.68
2023-02-02T02:08:38.354Z,27.48
2023-02-02T02:11:06.898Z,15.88
2023-02-02T02:13:57.887Z,19.35
2023-02-02T02:16:57.859Z,11.88
2023-02-02T02:19:37.322Z,10.60
2023-02-02T02:22:35.276Z,21.27
2023-02-02T02:25:30.366Z,24.10
2023-02-02T02:28:37.885Z,19.67
2023-02-02T02:31:31.934Z,29.98
2023-02-02T02:34:17.599Z,31.85
2023-02-02T02:37:09.452Z,43.10
2023-02-02T02:39:45.004Z,43.70
2023-02-02T02:42:16.986Z,21.17
2023-02-02T02:44:45.959Z,14.98
2023-02-02T02:47:13.728Z,17.63
2023-02-02T02:49:45.799Z,36.65
2023-02-02T02:52:14.211Z,23.08
2023-02-02T02:54:50.739Z,18.35
2023-02-02T02:57:34.330Z,17.13
2023-02-02T03:00:26.367Z,13.27
2023-02-02T03:03:09.616Z,11.40
2023-02-02T03:05:59.805Z,18.45
2023-02-02T03:08:36.787Z,28.17
2023-02-02T03:11:07.233Z,21.95
2023-02-02T03:13:35.527Z,22.90
2023-02-02T03:16:03.263Z,19.55
2023-02-02T03:18:33.806Z,19.90
2023-02-02T03:21:01.689Z,19.67
2023-02-02T03:23:29.523Z,24.13
2023-02-02T03:25:57.140Z,23.50
2023-02-02T03:28:25.568Z,21.80
2023-02-02T03:30:55.089Z,31.98
2023-02-02T03:33:23.102Z,27.33
2023-02-02T03:35:50.562Z,24.50
2023-02-02T03:38:18.099Z,23.95
2023-02-02T03:40:45.640Z,18.90
2023-02-02T03:43:13.110Z,14.40
2023-02-02T03:45:41.057Z,15.05
2023-02-02T03:48:08.644Z,8.43
2023-02-02T03:50:37.512Z,14.50
2023-02-02T03:53:05.469Z,13.68
2023-02-02T03:55:32.942Z,17.10
2023-02-02T03:58:00.353Z,8.38
2023-02-02T04:00:27.834Z,20.40
2023-02-02T04:02:55.461Z,11.73
2023-02-02T04:05:23.200Z,20.67
2023-02-02T04:07:50.882Z,13.48
2023-02-02T04:10:19.141Z,22.15
2023-02-02T04:12:46.872Z,30.90
2023-02-02T04:15:14.575Z,42.00
2023-02-02T04:17:42.004Z,39.53
2023-02-02T04:20:10.237Z,36.75
2023-02-02T04:22:37.795Z,34.50
2023-02-02T04:25:05.622Z,36.30
2023-02-02T04:27:34.348Z,31.00
2023-02-02T04:30:01.904Z,31.83
2023-02-02T04:32:31.617Z,27.05
2023-02-02T04:34:59.175Z,24.05
2023-02-02T04:37:26.655Z,29.50
2023-02-02T04:39:55.687Z,23.05
2023-02-02T04:42:23.157Z,21.45
2023-02-02T04:44:50.673Z,16.27
2023-02-02T04:47:18.220Z,19.90
2023-02-02T04:49:45.665Z,21.33
2023-02-02T04:52:13.192Z,19.40
2023-02-02T04:54:40.725Z,19.13
2023-02-02T04:57:08.362Z,16.48
2023-02-02T04:59:35.871Z,17.50
2023-02-02T05:02:03.456Z,20.73
2023-02-02T05:04:31.099Z,14.15
2023-02-02T05:06:58.738Z,18.70
2023-02-02T05:09:26.490Z,16.73
2023-02-02T05:11:54.005Z,20.73
2023-02-02T05:14:21.637Z,22.90
2023-02-02T05:16:50.246Z,31.80
2023-02-02T05:19:17.729Z,22.45
2023-02-02T05:21:45.967Z,19.20
2023-02-02T05:24:13.652Z,20.25
2023-02-02T05:26:41.118Z,21.45
2023-02-02T05:29:09.551Z,28.60
2023-02-02T05:31:37.193Z,26.20
2023-02-02T05:34:07.138Z,26.70
2023-02-02T05:36:34.615Z,25.60
2023-02-02T05:39:02.129Z,30.27
2023-02-02T05:41:29.635Z,33.92
2023-02-02T05:43:59.732Z,34.75
2023-02-02T05:46:27.301Z,36.03
2023-02-02T05:48:54.909Z,32.53
2023-02-02T05:51:28.045Z,38.05
2023-02-02T05:53:55.527Z,33.20
2023-02-02T05:56:23.100Z,35.00
2023-02-02T05:58:50.575Z,35.65
2023-02-02T06:01:19.486Z,36.47
2023-02-02T06:03:47.012Z,35.30
2023-02-02T06:06:14.842Z,27.02
2023-02-02T06:08:42.315Z,30.67
2023-02-02T06:11:18.009Z,36.65
2023-02-02T06:13:46.232Z,31.38
2023-02-02T06:16:14.183Z,37.33
2023-02-02T06:18:41.833Z,36.35
2023-02-02T06:21:10.346Z,37.63
2023-02-02T06:23:38.010Z,37.50
2023-02-02T06:26:05.879Z,34.90
2023-02-02T06:28:33.397Z,36.80
2023-02-02T06:31:11.079Z,32.42
2023-02-02T06:33:45.543Z,40.53
2023-02-02T06:36:15.887Z,40.78
2023-02-02T06:38:43.370Z,39.35
2023-02-02T06:41:10.792Z,43.55
2023-02-02T06:43:40.867Z,51.55
2023-02-02T06:46:10.152Z,54.55
2023-02-02T06:48:37.659Z,41.83
2023-02-02T06:51:08.746Z,36.33
2023-02-02T06:53:36.282Z,41.78
2023-02-02T06:56:06.521Z,44.00
2023-02-02T06:58:35.446Z,45.42
2023-02-02T07:01:04.908Z,39.10
2023-02-02T07:03:36.156Z,44.72
2023-02-02T07:06:25.031Z,50.17
2023-02-02T07:09:02.296Z,42.78
2023-02-02T07:11:35.612Z,39.97
2023-02-02T07:14:06.665Z,33.92
2023-02-02T07:16:34.280Z,37.92
2023-02-02T07:19:01.888Z,29.92
2023-02-02T07:21:35.750Z,34.15
2023-02-02T07:24:06.163Z,27.67
2023-02-02T07:26:36.462Z,31.92
2023-02-02T07:29:06.965Z,33.03
2023-02-02T07:31:36.481Z,31.77
2023-02-02T07:34:12.837Z,29.13
2023-02-02T07:36:40.500Z,27.08
2023-02-02T07:39:14.519Z,35.42
2023-02-02T07:41:43.919Z,27.98
2023-02-02T07:44:24.708Z,29.40
2023-02-02T07:46:52.718Z,28.90
2023-02-02T07:49:20.772Z,31.20
2023-02-02T07:51:49.628Z,32.42
2023-02-02T07:54:17.119Z,31.08
2023-02-02T07:56:44.732Z,31.52
2023-02-02T07:59:12.321Z,36.92
2023-02-02T08:01:40.004Z,32.92
2023-02-02T08:04:07.762Z,33.45
2023-02-02T08:06:38.409Z,35.47
2023-02-02T08:09:08.281Z,35.03
2023-02-02T08:11:40.076Z,33.55
2023-02-02T08:14:08.017Z,32.38
2023-02-02T08:16:35.748Z,31.85
2023-02-02T08:19:03.430Z,32.65
2023-02-02T08:21:34.112Z,28.90
2023-02-02T08:24:02.845Z,29.98
2023-02-02T08:26:33.635Z,31.63
2023-02-02T08:29:08.220Z,29.88
2023-02-02T08:31:43.121Z,27.55
2023-02-02T08:34:12.489Z,31.63
2023-02-02T08:36:40.566Z,29.40
2023-02-02T08:39:12.355Z,28.13
2023-02-02T08:41:40.512Z,30.23
2023-02-02T08:44:11.403Z,29.88
2023-02-02T08:46:39.399Z,28.42
2023-02-02T08:49:07.513Z,28.92
2023-02-02T08:51:35.094Z,29.02
2023-02-02T08:54:02.655Z,34.17
2023-02-02T08:56:30.245Z,29.88
2023-02-02T08:58:59.127Z,39.47
2023-02-02T09:01:29.379Z,38.30
2023-02-02T09:04:02.817Z,37.83
2023-02-02T09:06:39.226Z,34.03
2023-02-02T09:09:13.105Z,30.45
2023-02-02T09:11:40.995Z,30.35
2023-02-02T09:14:09.295Z,30.33
2023-02-02T09:16:37.173Z,36.13
2023-02-02T09:19:05.636Z,28.63
2023-02-02T09:21:37.579Z,25.52
2023-02-02T09:24:13.975Z,24.15
2023-02-02T09:26:42.862Z,22.15
2023-02-02T09:29:18.369Z,22.38
2023-02-02T09:31:47.241Z,23.70
2023-02-02T09:34:16.077Z,25.38
2023-02-02T09:36:44.844Z,19.98
2023-02-02T09:39:13.609Z,20.98
2023-02-02T09:41:41.119Z,18.65
2023-02-02T09:44:27.320Z,22.45
2023-02-02T09:47:03.986Z,20.40
2023-02-02T09:49:46.831Z,18.27
2023-02-02T09:52:23.811Z,19.60
2023-02-02T09:54:55.949Z,17.10
2023-02-02T09:57:29.418Z,19.00
2023-02-02T09:59:57.785Z,18.80
2023-02-02T10:02:39.084Z,21.80
2023-02-02T10:05:30.127Z,24.20
2023-02-02T10:08:03.436Z,21.35
2023-02-02T10:10:39.696Z,19.60
2023-02-02T10:13:33.869Z,18.25
2023-02-02T10:16:08.789Z,19.70
2023-02-02T10:18:39.677Z,24.27
2023-02-02T10:21:17.038Z,22.75
2023-02-02T10:23:46.214Z,21.45
2023-02-02T10:26:27.539Z,20.10
2023-02-02T10:29:19.756Z,20.70
2023-02-02T10:32:23.126Z,17.90
2023-02-02T10:35:06.986Z,21.48
2023-02-02T10:37:54.786Z,21.00
2023-02-02T10:40:32.713Z,22.83
2023-02-02T10:43:36.499Z,24.63
2023-02-02T10:46:05.845Z,31.95
2023-02-02T10:48:38.550Z,30.90
2023-02-02T10:51:32.580Z,25.48
2023-02-02T10:54:05.505Z,24.40
2023-02-02T10:56:48.894Z,25.03
2023-02-02T10:59:25.344Z,28.98
2023-02-02T11:01:53.054Z,24.40
2023-02-02T11:04:41.568Z,21.83
2023-02-02T11:07:13.750Z,23.88
2023-02-02T11:09:43.273Z,28.05
2023-02-02T11:12:19.719Z,23.75
2023-02-02T11:14:57.205Z,22.98
2023-02-02T11:17:26.565Z,24.15
2023-02-02T11:19:56.466Z,24.45
2023-02-02T11:22:28.981Z,26.15
2023-02-02T11:24:58.852Z,27.70
2023-02-02T11:27:41.694Z,24.02
2023-02-02T11:30:30.909Z,24.67
2023-02-02T11:32:58.502Z,25.42
2023-02-02T11:35:29.908Z,29.42
2023-02-02T11:38:09.313Z,23.60
2023-02-02T11:40:44.235Z,23.45
2023-02-02T11:43:23.051Z,23.15
2023-02-02T11:46:18.617Z,24.55
2023-02-02T11:48:57.786Z,26.70
2023-02-02T11:51:27.543Z,25.67
2023-02-02T11:54:39.558Z,27.50
2023-02-02T11:57:11.109Z,27.05
2023-02-02T11:59:40.932Z,28.60
2023-02-02T12:02:20.828Z,29.13
2023-02-02T12:04:50.051Z,30.63
2023-02-02T12:07:47.956Z,26.42
2023-02-02T12:10:24.874Z,31.08
2023-02-02T12:13:13.664Z,23.60
2023-02-02T12:16:03.989Z,22.05
2023-02-02T12:18:44.942Z,30.98
2023-02-02T12:21:26.123Z,29.35
2023-02-02T12:24:41.301Z,38.65
2023-02-02T12:27:24.959Z,34.05
2023-02-02T12:30:25.094Z,36.60
2023-02-02T12:33:21.805Z,41.75
2023-02-02T12:35:49.261Z,30.77
2023-02-02T12:38:55.843Z,15.93
2023-02-02T12:42:01.162Z,21.88
2023-02-02T12:44:37.659Z,22.58
2023-02-02T12:47:32.399Z,27.45
2023-02-02T12:50:56.814Z,23.45
2023-02-02T12:53:40.588Z,20.30
2023-02-02T12:56:29.376Z,20.58
2023-02-02T12:59:46.196Z,25.40
2023-02-02T13:02:43.871Z,21.35
2023-02-02T13:05:23.622Z,22.85
2023-02-02T13:08:05.630Z,19.75
2023-02-02T13:10:39.300Z,25.25
2023-02-02T13:13:18.788Z,18.88
2023-02-02T13:15:59.747Z,14.07
2023-02-02T13:18:31.856Z,14.18
2023-02-02T13:21:05.849Z,17.92
2023-02-02T13:26:16.624Z,17.45
2023-02-02T13:29:25.672Z,17.92
2023-02-02T13:31:56.199Z,16.05
2023-02-02T13:34:44.701Z,15.30
2023-02-02T13:38:12.217Z,13.50
2023-02-02T13:40:43.381Z,16.77
2023-02-02T13:44:01.929Z,16.50
2023-02-02T13:46:43.926Z,12.38
2023-02-02T13:49:25.350Z,19.13
2023-02-02T13:52:11.167Z,15.68
2023-02-02T13:54:53.494Z,17.17
2023-02-02T13:57:45.526Z,12.20
2023-02-02T14:00:15.673Z,10.18
2023-02-02T14:02:46.231Z,16.02
2023-02-02T14:05:33.810Z,16.77
2023-02-02T14:08:12.920Z,10.98
2023-02-02T14:10:45.508Z,12.18
2023-02-02T14:13:32.976Z,16.17
2023-02-02T14:16:05.116Z,14.10
2023-02-02T14:18:54.570Z,15.35
2023-02-02T14:21:34.424Z,17.77
2023-02-02T14:24:04.414Z,18.52
2023-02-02T14:26:43.405Z,11.95
2023-02-02T14:29:30.479Z,15.85
2023-02-02T14:32:23.794Z,16.63
2023-02-02T14:34:55.650Z,12.02
2023-02-02T14:37:29.094Z,14.90
2023-02-02T14:40:06.370Z,14.85
2023-02-02T14:43:10.781Z,14.27
2023-02-02T14:45:42.449Z,20.73
2023-02-02T14:48:20.917Z,10.45
2023-02-02T14:51:00.746Z,16.65
2023-02-02T14:53:28.915Z,12.60
2023-02-02T14:56:02.708Z,14.13
2023-02-02T14:58:35.629Z,18.25
2023-02-02T15:01:06.502Z,17.73
2023-02-02T15:03:53.427Z,16.25
2023-02-02T15:06:29.985Z,18.08
2023-02-02T15:09:28.635Z,20.55
2023-02-02T15:12:02.355Z,21.23
2023-02-02T15:17:12.895Z,18.63
2023-02-02T15:19:45.534Z,25.25
2023-02-02T15:22:36.741Z,21.65
2023-02-02T15:25:20.960Z,18.77
2023-02-02T15:28:11.956Z,18.98
2023-02-02T15:30:44.610Z,21.52
2023-02-02T15:33:31.978Z,16.55
2023-02-02T15:36:11.058Z,19.55
2023-02-02T15:38:42.238Z,21.30
2023-02-02T15:41:47.692Z,20.27
2023-02-02T15:44:27.704Z,20.77
2023-02-02T15:46:58.226Z,20.60
2023-02-02T15:49:35.381Z,17.75
2023-02-02T15:52:35.673Z,17.80
2023-02-02T15:55:03.489Z,15.10
2023-02-02T15:57:36.966Z,14.55
2023-02-02T16:00:25.226Z,15.88
2023-02-02T16:03:15.473Z,15.23
2023-02-02T16:05:49.128Z,17.45
2023-02-02T16:08:38.143Z,18.80
2023-02-02T16:11:21.789Z,17.13
2023-02-02T16:14:14.454Z,23.33
2023-02-02T16:16:42.065Z,27.05
2023-02-02T16:19:09.673Z,12.48
2023-02-02T16:21:44.314Z,18.42
2023-02-02T16:24:17.656Z,17.23
2023-02-02T16:26:45.931Z,19.15
2023-02-02T16:29:18.778Z,26.58
2023-02-02T16:31:48.596Z,21.65
2023-02-02T16:34:49.402Z,22.38
2023-02-02T16:37:22.896Z,21.23
2023-02-02T16:39:52.208Z,17.40
2023-02-02T16:42:31.960Z,16.23
2023-02-02T16:45:01.135Z,18.10
2023-02-02T16:47:32.866Z,18.73
2023-02-02T16:50:10.163Z,16.42
2023-02-02T16:53:03.890Z,24.17
2023-02-02T16:55:49.551Z,18.40
2023-02-02T16:58:22.065Z,18.25
2023-02-02T17:01:18.191Z,19.67
2023-02-02T17:03:56.629Z,19.70
2023-02-02T17:06:51.796Z,18.05
2023-02-02T17:09:44.054Z,14.93
2023-02-02T17:12:35.333Z,15.40
2023-02-02T17:15:34.660Z,12.68
2023-02-02T17:18:04.732Z,18.17
2023-02-02T17:20:34.883Z,16.02
2023-02-02T17:23:07.158Z,14.13
2023-02-02T17:25:45.647Z,15.32
2023-02-02T17:28:17.153Z,14.13
2023-02-02T17:30:47.787Z,15.45
2023-02-02T17:33:17.230Z,16.08
2023-02-02T17:35:54.714Z,13.85
2023-02-02T17:38:24.268Z,12.65
2023-02-02T17:40:54.502Z,17.00
2023-02-02T17:43:22.355Z,14.60
2023-02-02T17:45:50.910Z,19.52
2023-02-02T17:48:21.021Z,20.45
2023-02-02T17:50:48.701Z,19.85
2023-02-02T17:53:21.452Z,20.38
2023-02-02T17:55:50.331Z,18.73
2023-02-02T17:58:18.283Z,17.33
2023-02-02T18:00:54.320Z,24.13
2023-02-02T18:03:26.621Z,17.00
2023-02-02T18:05:54.472Z,17.38
2023-02-02T18:08:22.182Z,15.75
2023-02-02T18:10:50.007Z,17.33
2023-02-02T18:13:31.888Z,19.65
2023-02-02T18:16:05.923Z,17.45
2023-02-02T18:18:33.517Z,21.17
2023-02-02T18:21:01.152Z,20.13
2023-02-02T18:23:29.481Z,18.05
2023-02-02T18:25:57.088Z,16.73
2023-02-02T18:28:24.664Z,20.10
2023-02-02T18:30:52.332Z,16.73
2023-02-02T18:33:20.404Z,18.17
2023-02-02T18:35:48.363Z,19.45
2023-02-02T18:38:29.194Z,21.13
2023-02-02T18:40:57.904Z,20.65
2023-02-02T18:43:25.581Z,18.30
2023-02-02T18:46:06.522Z,18.98
2023-02-02T18:48:34.170Z,21.48
2023-02-02T18:51:06.453Z,15.38
2023-02-02T18:53:34.634Z,16.02
2023-02-02T18:56:06.887Z,19.17
2023-02-02T18:58:40.487Z,18.17
2023-02-02T19:01:16.615Z,17.65
2023-02-02T19:03:49.249Z,14.77
2023-02-02T19:06:36.462Z,13.73
2023-02-02T19:09:05.540Z,15.63
2023-02-02T19:11:45.336Z,14.43
2023-02-02T19:14:17.305Z,16.85
2023-02-02T19:16:48.992Z,12.75
2023-02-02T19:19:24.433Z,19.55
2023-02-02T19:21:56.521Z,11.18
2023-02-02T19:24:29.179Z,14.52
2023-02-02T19:26:57.051Z,14.77
2023-02-02T19:29:30.739Z,15.50
2023-02-02T19:32:07.844Z,13.57
2023-02-02T19:34:36.331Z,13.38
2023-02-02T19:37:26.177Z,17.40
2023-02-02T19:40:21.535Z,11.60
2023-02-02T19:43:22.566Z,18.05
2023-02-02T19:45:54.235Z,14.55
2023-02-02T19:48:39.566Z,15.18
2023-02-02T19:51:45.391Z,12.75
2023-02-02T19:54:28.304Z,10.15
2023-02-02T19:57:13.498Z,12.27
2023-02-02T19:59:43.640Z,17.80
2023-02-02T20:02:44.077Z,14.25
2023-02-02T20:05:12.018Z,12.40
2023-02-02T20:07:41.677Z,14.88
2023-02-02T20:10:28.812Z,15.60
2023-02-02T20:12:57.578Z,17.90
2023-02-02T20:15:33.779Z,11.98
2023-02-02T20:18:24.588Z,14.10
2023-02-02T20:20:57.668Z,12.20
2023-02-02T20:23:46.153Z,13.73
2023-02-02T20:26:35.348Z,15.00
2023-02-02T20:29:17.660Z,14.55
2023-02-02T20:31:46.776Z,19.73
2023-02-02T20:34:28.341Z,19.05
2023-02-02T20:37:23.145Z,18.33
2023-02-02T20:39:54.196Z,18.33
2023-02-02T20:42:22.921Z,20.67
2023-02-02T20:44:50.993Z,16.63
2023-02-02T20:47:19.144Z,18.30
2023-02-02T20:49:47.551Z,18.63
2023-02-02T20:52:23.551Z,18.17
2023-02-02T20:54:52.438Z,23.02
2023-02-02T20:57:20.119Z,18.65
2023-02-02T20:59:47.569Z,21.95
2023-02-02T21:02:19.611Z,16.80
2023-02-02T21:04:48.815Z,21.75
2023-02-02T21:07:17.777Z,26.40
2023-02-02T21:09:47.036Z,24.05
2023-02-02T21:12:15.044Z,20.98
2023-02-02T21:14:45.176Z,22.42
2023-02-02T21:17:15.744Z,25.67
2023-02-02T21:19:44.292Z,24.27
2023-02-02T21:22:12.847Z,28.45
2023-02-02T21:24:40.724Z,23.92
2023-02-02T21:27:09.192Z,23.45
2023-02-02T21:29:37.195Z,24.08
2023-02-02T21:32:05.367Z,22.92
2023-02-02T21:34:33.290Z,26.80
2023-02-02T21:37:00.944Z,27.42
2023-02-02T21:39:32.355Z,30.25
2023-02-02T21:42:09.235Z,27.55
2023-02-02T21:44:52.750Z,26.83
2023-02-02T21:47:31.520Z,20.48
2023-02-02T21:50:22.976Z,26.00
2023-02-02T21:52:50.507Z,23.63
2023-02-02T21:55:34.941Z,18.30
2023-02-02T21:58:25.967Z,21.73
2023-02-02T22:00:57.885Z,22.88
2023-02-02T22:03:35.270Z,22.35
2023-02-02T22:06:13.149Z,19.10
2023-02-02T22:08:40.712Z,18.63
2023-02-02T22:11:31.892Z,20.38
2023-02-02T22:14:15.406Z,21.45
2023-02-02T22:19:27.809Z,24.30
2023-02-02T22:22:16.055Z,23.15
2023-02-02T22:24:46.136Z,23.17
2023-02-02T22:27:25.604Z,18.55
2023-02-02T22:30:01.187Z,16.85
2023-02-02T22:32:28.800Z,22.33
2023-02-02T22:34:56.278Z,17.13
2023-02-02T22:37:23.933Z,18.08
2023-02-02T22:39:51.375Z,16.13
2023-02-02T22:42:18.915Z,15.35
2023-02-02T22:44:46.795Z,17.75
2023-02-02T22:47:14.407Z,16.85
2023-02-02T22:49:41.883Z,19.85
2023-02-02T22:52:09.375Z,11.70
2023-02-02T22:54:36.958Z,18.75
2023-02-02T22:57:04.574Z,21.52
2023-02-02T22:59:32.049Z,23.48
2023-02-02T23:01:59.607Z,26.65
2023-02-02T23:04:27.075Z,32.33
2023-02-02T23:06:54.556Z,25.73
2023-02-02T23:09:22.106Z,32.03
2023-02-02T23:11:49.613Z,29.00
2023-02-02T23:14:17.148Z,27.35
2023-02-02T23:16:44.614Z,29.15
2023-02-02T23:19:12.093Z,27.10
2023-02-02T23:21:39.682Z,28.33
2023-02-02T23:24:07.545Z,28.58
2023-02-02T23:26:35.149Z,25.73
2023-02-02T23:29:02.624Z,26.15
2023-02-02T23:31:30.253Z,27.35
2023-02-02T23:33:57.831Z,26.30
2023-02-02T23:36:25.363Z,27.10
2023-02-02T23:38:52.804Z,28.48
2023-02-02T23:41:20.779Z,23.10
2023-02-02T23:43:50.104Z,27.45
2023-02-02T23:46:18.279Z,23.17
2023-02-02T23:48:46.331Z,28.17
2023-02-02T23:51:14.049Z,26.35
2023-02-02T23:53:43.272Z,27.90
2023-02-02T23:56:10.756Z,27.70
2023-02-02T23:58:38.356Z,24.92
